createdAt,value
2022-10-06T00:00:38.202Z,100077.66
2022-10-06T00:03:25.429Z,100082.00
2022-10-06T00:06:17.154Z,100074.16
2022-10-06T00:09:04.368Z,100078.50
2022-10-06T00:11:51.806Z,100085.38
2022-10-06T00:14:39.109Z,100086.22
2022-10-06T00:17:27.027Z,100097.47
2022-10-06T00:20:14.805Z,100095.00
2022-10-06T00:23:03.404Z,100100.28
2022-10-06T00:25:50.449Z,100097.69
2022-10-06T00:28:38.288Z,100094.41
2022-10-06T00:31:25.397Z,100089.25
2022-10-06T00:34:12.553Z,100090.88
2022-10-06T00:36:59.723Z,100083.97
2022-10-06T00:39:48.231Z,100088.31
2022-10-06T00:42:50.724Z,100093.47
2022-10-06T00:45:42.032Z,100102.00
2022-10-06T00:48:32.363Z,100098.63
2022-10-06T00:51:20.028Z,100095.13
2022-10-06T00:54:08.717Z,100100.16
2022-10-06T00:56:57.589Z,100095.00
2022-10-06T00:59:44.690Z,100095.00
2022-10-06T01:02:38.512Z,100107.75
2022-10-06T01:05:31.463Z,100118.06
2022-10-06T01:08:19.529Z,100131.88
2022-10-06T01:11:06.895Z,100142.19
2022-10-06T01:13:56.170Z,100147.47
2022-10-06T01:16:45.857Z,100157.88
2022-10-06T01:19:47.359Z,100157.16
2022-10-06T01:22:39.085Z,100151.31
2022-10-06T01:25:26.996Z,100151.44
2022-10-06T01:28:15.399Z,100150.59
2022-10-06T01:31:04.529Z,100158.31
2022-10-06T01:33:53.698Z,100155.75
2022-10-06T01:36:42.301Z,100161.81
2022-10-06T01:39:31.212Z,100159.25
2022-10-06T01:42:18.592Z,100164.41
2022-10-06T01:45:06.854Z,100166.97
2022-10-06T01:47:53.961Z,100166.97
2022-10-06T01:50:42.518Z,100178.13
2022-10-06T01:53:29.944Z,100172.13
2022-10-06T01:56:18.937Z,100178.94
2022-10-06T01:59:06.295Z,100180.59
2022-10-06T02:01:53.911Z,100184.94
2022-10-06T02:04:41.180Z,100183.06
2022-10-06T02:07:28.078Z,100183.84
2022-10-06T02:10:15.113Z,100185.50
2022-10-06T02:13:04.917Z,100189.84
2022-10-06T02:15:57.715Z,100191.59
2022-10-06T02:18:45.142Z,100192.53
2022-10-06T02:21:32.437Z,100190.91
2022-10-06T02:24:19.893Z,100201.19
2022-10-06T02:27:08.164Z,100198.75
2022-10-06T02:29:57.273Z,100204.72
2022-10-06T02:32:45.258Z,100210.69
2022-10-06T02:35:33.119Z,100216.66
2022-10-06T02:38:20.319Z,100219.34
2022-10-06T02:41:07.811Z,100220.16
2022-10-06T02:43:56.373Z,100226.25
2022-10-06T02:46:45.895Z,100232.25
2022-10-06T02:49:33.209Z,100233.16
2022-10-06T02:52:20.327Z,100238.31
2022-10-06T02:55:10.559Z,100251.19
2022-10-06T02:57:57.775Z,100253.78
2022-10-06T03:00:45.879Z,100259.75
2022-10-06T03:03:36.005Z,100260.59
2022-10-06T03:06:25.241Z,100272.63
2022-10-06T03:09:38.304Z,100268.53
2022-10-06T03:12:25.870Z,100287.38
2022-10-06T03:15:13.603Z,100295.13
2022-10-06T03:18:00.705Z,100303.78
2022-10-06T03:20:49.728Z,100314.06
2022-10-06T03:23:37.172Z,100326.97
2022-10-06T03:26:28.210Z,100325.31
2022-10-06T03:29:16.911Z,100326.25
2022-10-06T03:32:09.326Z,100334.00
2022-10-06T03:34:57.472Z,100333.16
2022-10-06T03:37:45.896Z,100339.16
2022-10-06T03:40:34.084Z,100347.78
2022-10-06T03:43:21.381Z,100352.16
2022-10-06T03:46:09.519Z,100356.44
2022-10-06T03:48:58.396Z,100367.69
2022-10-06T03:51:46.107Z,100370.25
2022-10-06T03:54:40.672Z,100375.41
2022-10-06T03:57:27.986Z,100381.50
2022-10-06T04:00:16.566Z,100382.44
2022-10-06T04:03:05.411Z,100387.59
2022-10-06T04:05:57.034Z,100396.25
2022-10-06T04:08:46.704Z,100393.78
2022-10-06T04:11:38.377Z,100395.44
2022-10-06T04:14:27.044Z,100397.28
2022-10-06T04:17:15.123Z,100411.94
2022-10-06T04:20:02.435Z,100411.94
2022-10-06T04:22:49.543Z,100419.75
2022-10-06T04:25:36.670Z,100417.19
2022-10-06T04:28:25.547Z,100418.91
2022-10-06T04:31:16.877Z,100429.22
2022-10-06T04:34:04.543Z,100431.78
2022-10-06T04:36:53.672Z,100426.88
2022-10-06T04:39:41.343Z,100436.25
2022-10-06T04:42:34.888Z,100421.72
2022-10-06T04:45:26.147Z,100428.63
2022-10-06T04:48:13.341Z,100442.44
2022-10-06T04:51:03.153Z,100447.59
2022-10-06T04:53:50.817Z,100442.44
2022-10-06T04:56:38.428Z,100451.94
2022-10-06T04:59:46.064Z,100457.06
2022-10-06T05:02:37.431Z,100464.06
2022-10-06T05:05:25.948Z,100461.50
2022-10-06T05:08:15.083Z,100468.41
2022-10-06T05:11:02.786Z,100468.41
2022-10-06T05:13:51.790Z,100465.06
2022-10-06T05:16:39.101Z,100483.94
2022-10-06T05:19:28.908Z,100482.28
2022-10-06T05:22:16.440Z,100495.97
2022-10-06T05:25:05.351Z,100487.44
2022-10-06T05:27:52.729Z,100500.31
2022-10-06T05:30:39.917Z,100514.13
2022-10-06T05:33:29.552Z,100518.47
2022-10-06T05:36:20.864Z,100521.94
2022-10-06T05:39:10.212Z,100522.75
2022-10-06T05:42:05.465Z,100531.41
2022-10-06T05:44:53.002Z,100534.94
2022-10-06T05:47:39.984Z,100531.50
2022-10-06T05:50:27.127Z,100534.94
2022-10-06T05:53:15.594Z,100539.25
2022-10-06T05:56:08.202Z,100551.31
2022-10-06T05:58:57.301Z,100550.50
2022-10-06T06:01:47.123Z,100553.88
2022-10-06T06:04:32.929Z,100559.94
2022-10-06T06:07:02.665Z,100564.19
2022-10-06T06:09:32.827Z,100571.81
2022-10-06T06:12:03.209Z,100574.50
2022-10-06T06:15:06.266Z,100589.94
2022-10-06T06:17:40.587Z,100597.66
2022-10-06T06:20:10.826Z,100595.09
2022-10-06T06:22:39.558Z,100612.22
2022-10-06T06:25:12.990Z,100612.22
2022-10-06T06:27:43.422Z,100619.94
2022-10-06T06:30:13.572Z,100612.22
2022-10-06T06:32:42.855Z,100614.78
2022-10-06T06:35:12.157Z,100625.09
2022-10-06T06:37:40.971Z,100634.44
2022-10-06T06:40:11.689Z,100621.56
2022-10-06T06:42:41.535Z,100635.38
2022-10-06T06:45:18.999Z,100639.59
2022-10-06T06:48:04.264Z,100655.03
2022-10-06T06:50:34.770Z,100655.03
2022-10-06T06:53:04.895Z,100651.56
2022-10-06T06:55:38.391Z,100659.28
2022-10-06T06:58:07.320Z,100661.84
2022-10-06T07:00:36.909Z,100666.09
2022-10-06T07:03:06.495Z,100673.81
2022-10-06T07:05:36.558Z,100684.13
2022-10-06T07:08:05.275Z,100680.63
2022-10-06T07:10:36.399Z,100681.44
2022-10-06T07:13:07.629Z,100685.59
2022-10-06T07:15:53.856Z,100677.78
2022-10-06T07:18:40.089Z,100681.19
2022-10-06T07:21:29.913Z,100690.56
2022-10-06T07:24:16.955Z,100705.00
2022-10-06T07:26:45.789Z,100703.31
2022-10-06T07:29:15.959Z,100715.19
2022-10-06T07:31:44.675Z,100719.44
2022-10-06T07:34:13.403Z,100715.09
2022-10-06T07:36:48.767Z,100721.09
2022-10-06T07:39:17.996Z,100729.53
2022-10-06T07:41:46.924Z,100744.06
2022-10-06T07:44:17.062Z,100743.16
2022-10-06T07:46:48.425Z,100746.44
2022-10-06T07:49:21.677Z,100755.72
2022-10-06T07:51:50.739Z,100746.06
2022-10-06T07:54:24.050Z,100744.19
2022-10-06T07:57:18.789Z,100753.47
2022-10-06T07:59:48.916Z,100747.13
2022-10-06T08:02:18.085Z,100753.72
2022-10-06T08:04:46.665Z,100755.19
2022-10-06T08:07:15.298Z,100754.97
2022-10-06T08:09:43.924Z,100765.09
2022-10-06T08:12:26.358Z,100758.91
2022-10-06T08:14:56.659Z,100756.13
2022-10-06T08:17:25.374Z,100754.97
2022-10-06T08:19:54.359Z,100765.94
2022-10-06T08:22:27.377Z,100765.72
2022-10-06T08:25:08.266Z,100764.59
2022-10-06T08:27:38.450Z,100773.78
2022-10-06T08:30:09.925Z,100775.22
2022-10-06T08:32:39.108Z,100775.06
2022-10-06T08:35:08.399Z,100771.34
2022-10-06T08:37:37.063Z,100764.31
2022-10-06T08:40:08.077Z,100775.19
2022-10-06T08:42:42.243Z,100782.69
2022-10-06T08:45:19.198Z,100777.34
2022-10-06T08:47:59.085Z,100773.66
2022-10-06T08:50:33.034Z,100776.94
2022-10-06T08:53:15.617Z,100788.69
2022-10-06T08:55:52.383Z,100798.00
2022-10-06T08:58:38.524Z,100789.13
2022-10-06T09:01:21.335Z,100794.06
2022-10-06T09:03:52.533Z,100798.19
2022-10-06T09:06:38.034Z,100795.41
2022-10-06T09:09:18.569Z,100798.59
2022-10-06T09:11:58.881Z,100797.47
2022-10-06T09:14:37.791Z,100798.78
2022-10-06T09:17:12.846Z,100804.47
2022-10-06T09:19:46.869Z,100800.66
2022-10-06T09:22:21.678Z,100800.25
2022-10-06T09:24:55.167Z,100804.16
2022-10-06T09:27:28.200Z,100815.69
2022-10-06T09:29:57.117Z,100811.81
2022-10-06T09:32:30.089Z,100819.00
2022-10-06T09:35:00.793Z,100824.56
2022-10-06T09:37:29.930Z,100830.25
2022-10-06T09:39:58.937Z,100826.28
2022-10-06T09:42:35.605Z,100825.88
2022-10-06T09:45:08.126Z,100823.06
2022-10-06T09:47:45.589Z,100821.78
2022-10-06T09:50:26.290Z,100829.13
2022-10-06T09:53:18.593Z,100826.22
2022-10-06T09:55:54.846Z,100834.25
2022-10-06T09:58:31.484Z,100842.59
2022-10-06T10:01:02.698Z,100831.22
2022-10-06T10:04:15.694Z,100825.81
2022-10-06T10:06:41.809Z,100835.47
2022-10-06T10:09:27.175Z,100827.72
2022-10-06T10:12:28.022Z,100826.28
2022-10-06T10:15:01.910Z,100829.19
2022-10-06T10:17:40.208Z,100825.16
2022-10-06T10:20:29.069Z,100826.44
2022-10-06T10:23:00.081Z,100821.50
2022-10-06T10:25:48.442Z,100830.50
2022-10-06T10:28:46.999Z,100838.56
2022-10-06T10:31:25.942Z,100832.78
2022-10-06T10:34:12.754Z,100832.31
2022-10-06T10:36:58.889Z,100827.25
2022-10-06T10:39:35.132Z,100831.91
2022-10-06T10:42:12.510Z,100821.75
2022-10-06T10:44:51.018Z,100831.41
2022-10-06T10:47:26.396Z,100829.84
2022-10-06T10:50:03.458Z,100823.97
2022-10-06T10:52:41.409Z,100819.00
2022-10-06T10:55:26.785Z,100831.31
2022-10-06T10:58:00.589Z,100823.78
2022-10-06T11:00:35.422Z,100829.13
2022-10-06T11:03:04.142Z,100826.88
2022-10-06T11:05:50.553Z,100841.63
2022-10-06T11:08:28.794Z,100829.97
2022-10-06T11:11:01.592Z,100836.97
2022-10-06T11:13:38.504Z,100833.69
2022-10-06T11:16:27.531Z,100829.66
2022-10-06T11:19:14.872Z,100834.09
2022-10-06T11:21:51.326Z,100838.56
2022-10-06T11:24:32.604Z,100836.19
2022-10-06T11:27:17.718Z,100828.63
2022-10-06T11:29:59.471Z,100823.69
2022-10-06T11:32:53.338Z,100823.81
2022-10-06T11:35:24.359Z,100821.44
2022-10-06T11:38:00.324Z,100822.25
2022-10-06T11:40:57.738Z,100822.56
2022-10-06T11:43:37.345Z,100814.91
2022-10-06T11:46:21.608Z,100816.78
2022-10-06T11:48:50.265Z,100822.88
2022-10-06T11:51:32.423Z,100811.84
2022-10-06T11:54:01.165Z,100818.84
2022-10-06T11:56:41.071Z,100811.22
2022-10-06T11:59:28.588Z,100818.25
2022-10-06T12:02:04.012Z,100816.56
2022-10-06T12:04:32.849Z,100812.34
2022-10-06T12:07:06.321Z,100808.09
2022-10-06T12:09:52.737Z,100806.44
2022-10-06T12:12:47.766Z,100803.16
2022-10-06T12:18:51.197Z,100803.47
2022-10-06T12:21:40.152Z,100802.53
2022-10-06T12:24:28.572Z,100798.31
2022-10-06T12:27:26.297Z,100796.66
2022-10-06T12:30:06.188Z,100800.91
2022-10-06T12:32:47.633Z,100800.91
2022-10-06T12:35:32.238Z,100794.88
2022-10-06T12:38:05.014Z,100794.88
2022-10-06T12:40:51.304Z,100788.91
2022-10-06T12:43:51.195Z,100783.88
2022-10-06T12:46:39.024Z,100774.34
2022-10-06T12:49:42.757Z,100776.94
2022-10-06T12:52:44.560Z,100777.66
2022-10-06T12:55:29.963Z,100775.09
2022-10-06T12:57:58.755Z,100782.72
2022-10-06T13:00:35.057Z,100780.03
2022-10-06T13:03:08.874Z,100773.09
2022-10-06T13:05:38.065Z,100774.88
2022-10-06T13:08:08.776Z,100772.19
2022-10-06T13:10:37.443Z,100776.53
2022-10-06T13:13:24.391Z,100767.94
2022-10-06T13:15:55.998Z,100778.16
2022-10-06T13:18:26.397Z,100773.00
2022-10-06T13:20:56.285Z,100768.78
2022-10-06T13:23:28.272Z,100764.56
2022-10-06T13:26:00.047Z,100764.56
2022-10-06T13:28:34.877Z,100765.47
2022-10-06T13:31:16.623Z,100757.72
2022-10-06T13:33:48.729Z,100754.44
2022-10-06T13:36:18.086Z,100756.06
2022-10-06T13:38:46.997Z,100751.75
2022-10-06T13:41:25.780Z,100757.72
2022-10-06T13:43:57.668Z,100757.72
2022-10-06T13:46:29.756Z,100753.50
2022-10-06T13:49:04.489Z,100753.50
2022-10-06T13:51:34.436Z,100756.06
2022-10-06T13:54:17.281Z,100760.41
2022-10-06T13:56:46.262Z,100754.44
2022-10-06T13:59:29.869Z,100754.53
2022-10-06T14:02:02.789Z,100752.91
2022-10-06T14:04:34.741Z,100752.06
2022-10-06T14:07:06.628Z,100752.16
2022-10-06T14:09:35.859Z,100746.19
2022-10-06T14:12:11.828Z,100751.34
2022-10-06T14:14:40.883Z,100743.59
2022-10-06T14:17:23.779Z,100745.44
2022-10-06T14:19:53.854Z,100744.53
2022-10-06T14:22:34.320Z,100748.03
2022-10-06T14:25:03.175Z,100742.88
2022-10-06T14:27:31.787Z,100742.88
2022-10-06T14:30:00.744Z,100738.56
2022-10-06T14:32:29.692Z,100736.06
2022-10-06T14:34:59.678Z,100737.00
2022-10-06T14:37:28.263Z,100739.59
2022-10-06T14:39:57.100Z,100739.59
2022-10-06T14:42:26.014Z,100736.28
2022-10-06T14:44:54.659Z,100730.28
2022-10-06T14:47:23.270Z,100735.44
2022-10-06T14:49:52.921Z,100729.44
2022-10-06T14:52:22.908Z,100732.97
2022-10-06T14:54:51.561Z,100728.75
2022-10-06T14:57:20.603Z,100725.34
2022-10-06T14:59:49.416Z,100721.94
2022-10-06T15:02:20.394Z,100726.28
2022-10-06T15:04:49.043Z,100725.44
2022-10-06T15:07:35.087Z,100729.75
2022-10-06T15:10:06.599Z,100718.78
2022-10-06T15:12:35.187Z,100723.94
2022-10-06T15:15:07.620Z,100720.56
2022-10-06T15:17:36.198Z,100717.97
2022-10-06T15:20:06.771Z,100711.06
2022-10-06T15:22:35.568Z,100715.41
2022-10-06T15:25:06.517Z,100711.06
2022-10-06T15:28:02.305Z,100703.31
2022-10-06T15:30:30.971Z,100710.34
2022-10-06T15:33:01.766Z,100709.44
2022-10-06T15:35:33.075Z,100712.94
2022-10-06T15:38:02.079Z,100706.97
2022-10-06T15:40:32.109Z,100706.97
2022-10-06T15:43:00.961Z,100706.22
2022-10-06T15:45:29.579Z,100704.44
2022-10-06T15:47:58.196Z,100700.31
2022-10-06T15:50:27.063Z,100700.31
2022-10-06T15:52:58.121Z,100703.84
2022-10-06T15:55:26.757Z,100703.00
2022-10-06T15:57:56.737Z,100701.38
2022-10-06T16:00:25.712Z,100707.47
2022-10-06T16:02:54.309Z,100707.56
2022-10-06T16:05:48.025Z,100704.16
2022-10-06T16:08:16.616Z,100704.25
2022-10-06T16:10:51.190Z,100701.78
2022-10-06T16:13:21.149Z,100694.97
2022-10-06T16:15:54.517Z,100700.13
2022-10-06T16:18:23.317Z,100699.41
2022-10-06T16:20:55.321Z,100695.19
2022-10-06T16:23:24.181Z,100698.69
2022-10-06T16:25:52.794Z,100709.00
2022-10-06T16:28:22.775Z,100703.13
2022-10-06T16:30:56.166Z,100700.56
2022-10-06T16:33:24.856Z,100703.25
2022-10-06T16:35:56.786Z,100704.97
2022-10-06T16:38:26.057Z,100705.88
2022-10-06T16:40:57.266Z,100700.84
2022-10-06T16:43:32.583Z,100707.03
2022-10-06T16:46:04.392Z,100714.06
2022-10-06T16:48:35.283Z,100709.09
2022-10-06T16:51:06.888Z,100704.03
2022-10-06T16:53:37.763Z,100714.53
2022-10-06T16:56:08.779Z,100713.84
2022-10-06T16:58:40.710Z,100714.75
2022-10-06T17:01:10.599Z,100712.28
2022-10-06T17:03:39.731Z,100708.88
2022-10-06T17:06:12.704Z,100719.28
2022-10-06T17:08:42.928Z,100722.06
2022-10-06T17:11:14.671Z,100727.22
2022-10-06T17:13:47.425Z,100718.78
2022-10-06T17:16:19.352Z,100724.84
2022-10-06T17:18:49.538Z,100730.19
2022-10-06T17:21:43.160Z,100728.56
2022-10-06T17:24:08.903Z,100733.88
2022-10-06T17:26:39.755Z,100734.84
2022-10-06T17:29:14.994Z,100728.13
2022-10-06T17:31:45.010Z,100745.41
2022-10-06T17:34:20.379Z,100737.91
2022-10-06T17:36:52.195Z,100741.50
2022-10-06T17:39:24.487Z,100743.53
2022-10-06T17:41:54.883Z,100745.59
2022-10-06T17:44:28.536Z,100744.19
2022-10-06T17:47:00.501Z,100745.41
2022-10-06T17:49:30.513Z,100746.31
2022-10-06T17:51:59.351Z,100742.22
2022-10-06T17:54:28.781Z,100742.22
2022-10-06T17:56:59.291Z,100744.88
2022-10-06T17:59:31.829Z,100746.53
2022-10-06T18:02:03.729Z,100743.94
2022-10-06T18:04:33.811Z,100744.03
2022-10-06T18:07:03.464Z,100740.66
2022-10-06T18:09:32.199Z,100744.97
2022-10-06T18:12:01.159Z,100746.72
2022-10-06T18:14:33.606Z,100745.06
2022-10-06T18:17:04.032Z,100742.59
2022-10-06T18:19:35.036Z,100741.78
2022-10-06T18:22:08.683Z,100735.88
2022-10-06T18:24:38.264Z,100741.94
2022-10-06T18:27:08.184Z,100749.78
2022-10-06T18:29:39.985Z,100742.97
2022-10-06T18:33:16.516Z,100743.06
2022-10-06T18:36:10.460Z,100736.34
2022-10-06T18:37:47.016Z,100742.53
2022-10-06T18:40:15.965Z,100737.41
2022-10-06T18:42:44.695Z,100738.41
2022-10-06T18:45:35.527Z,100733.34
2022-10-06T18:48:29.749Z,100730.97
2022-10-06T18:51:02.593Z,100743.94
2022-10-06T18:53:32.757Z,100741.47
2022-10-06T18:56:01.486Z,100734.66
2022-10-06T18:58:30.177Z,100728.78
2022-10-06T19:01:05.636Z,100737.41
2022-10-06T19:03:34.410Z,100740.09
2022-10-06T19:06:03.441Z,100736.66
2022-10-06T19:08:32.237Z,100733.38
2022-10-06T19:11:22.475Z,100738.53
2022-10-06T19:13:52.243Z,100737.78
2022-10-06T19:16:22.548Z,100738.72
2022-10-06T19:18:51.348Z,100739.63
2022-10-06T19:21:20.039Z,100744.03
2022-10-06T19:23:50.356Z,100744.13
2022-10-06T19:26:20.333Z,100744.25
2022-10-06T19:28:50.757Z,100739.38
2022-10-06T19:31:20.060Z,100741.31
2022-10-06T19:33:50.459Z,100740.41
2022-10-06T19:36:19.367Z,100729.34
2022-10-06T19:38:47.995Z,100744.09
2022-10-06T19:41:33.857Z,100739.03
2022-10-06T19:44:03.629Z,100741.66
2022-10-06T19:46:32.460Z,100750.34
2022-10-06T19:49:05.856Z,100744.34
2022-10-06T19:51:36.672Z,100752.16
2022-10-06T19:54:06.269Z,100754.81
2022-10-06T19:56:35.271Z,100757.50
2022-10-06T19:59:05.080Z,100760.97
2022-10-06T20:01:34.816Z,100760.97
2022-10-06T20:04:24.921Z,100762.84
2022-10-06T20:07:12.151Z,100757.84
2022-10-06T20:09:59.541Z,100763.19
2022-10-06T20:12:46.626Z,100760.72
2022-10-06T20:15:36.067Z,100758.25
2022-10-06T20:18:25.467Z,100760.03
2022-10-06T20:21:17.889Z,100755.81
2022-10-06T20:24:08.680Z,100759.41
2022-10-06T20:26:56.381Z,100757.00
2022-10-06T20:29:43.879Z,100751.94
2022-10-06T20:32:31.568Z,100747.81
2022-10-06T20:35:19.187Z,100749.56
2022-10-06T20:38:08.993Z,100750.47
2022-10-06T20:40:55.179Z,100751.47
2022-10-06T20:43:43.257Z,100750.66
2022-10-06T20:46:33.945Z,100743.84
2022-10-06T20:49:21.562Z,100745.72
2022-10-06T20:52:09.891Z,100753.44
2022-10-06T20:54:58.469Z,100745.88
2022-10-06T20:57:46.244Z,100747.72
2022-10-06T21:00:33.866Z,100746.06
2022-10-06T21:03:20.942Z,100735.88
2022-10-06T21:06:08.474Z,100741.09
2022-10-06T21:08:56.965Z,100739.44
2022-10-06T21:11:46.882Z,100730.91
2022-10-06T21:14:37.490Z,100731.00
2022-10-06T21:17:24.645Z,100727.69
2022-10-06T21:20:12.330Z,100729.53
2022-10-06T21:22:59.377Z,100733.19
2022-10-06T21:25:46.489Z,100728.22
2022-10-06T21:28:35.740Z,100726.66
2022-10-06T21:31:25.184Z,100720.88
2022-10-06T21:34:14.254Z,100724.38
2022-10-06T21:37:01.504Z,100721.88
2022-10-06T21:39:48.497Z,100719.41
2022-10-06T21:42:35.643Z,100720.31
2022-10-06T21:45:29.602Z,100716.19
2022-10-06T21:48:19.510Z,100722.22
2022-10-06T21:51:06.781Z,100718.84
2022-10-06T21:53:56.058Z,100712.84
2022-10-06T21:56:43.956Z,100714.53
2022-10-06T21:59:31.329Z,100713.69
2022-10-06T22:02:19.710Z,100712.84
2022-10-06T22:05:07.283Z,100712.03
2022-10-06T22:07:54.373Z,100712.13
2022-10-06T22:10:41.434Z,100713.88
2022-10-06T22:13:30.007Z,100706.25
2022-10-06T22:16:19.966Z,100699.47
2022-10-06T22:19:10.993Z,100694.50
2022-10-06T22:21:58.213Z,100701.47
2022-10-06T22:24:45.414Z,100703.22
2022-10-06T22:27:32.869Z,100693.97
2022-10-06T22:30:21.955Z,100694.94
2022-10-06T22:33:09.034Z,100693.38
2022-10-06T22:35:57.672Z,100696.03
2022-10-06T22:38:44.958Z,100691.81
2022-10-06T22:41:32.082Z,100694.47
2022-10-06T22:44:19.446Z,100687.78
2022-10-06T22:47:06.711Z,100687.78
2022-10-06T22:49:54.023Z,100685.19
2022-10-06T22:52:42.483Z,100673.25
2022-10-06T22:55:29.806Z,100669.97
2022-10-06T22:58:18.537Z,100665.75
2022-10-06T23:01:11.782Z,100668.31
2022-10-06T23:03:59.436Z,100666.66
2022-10-06T23:06:46.501Z,100663.19
2022-10-06T23:09:35.328Z,100666.66
2022-10-06T23:12:22.630Z,100658.13
2022-10-06T23:15:13.811Z,100658.13
2022-10-06T23:18:01.090Z,100660.78
2022-10-06T23:20:48.065Z,100654.00
2022-10-06T23:23:35.545Z,100653.16
2022-10-06T23:26:25.530Z,100647.19
2022-10-06T23:29:13.842Z,100649.84
2022-10-06T23:32:01.488Z,100650.81
2022-10-06T23:34:48.582Z,100644.97
2022-10-06T23:37:36.364Z,100640.72
2022-10-06T23:40:23.475Z,100647.53
2022-10-06T23:43:11.890Z,100645.88
2022-10-06T23:45:59.665Z,100632.13
2022-10-06T23:48:46.982Z,100630.47
2022-10-06T23:51:34.025Z,100640.63
2022-10-06T23:54:21.353Z,100626.13
2022-10-06T23:57:09.391Z,100621.84
2022-10-06T23:59:57.918Z,100615.88
